Time;durP1;ratioP1;P1;durP2;ratioP2;P2;SDS_P1;SDS_P2;PMS_P1;PMS_P2;Temp;Humidity;BMP_temperature;BMP_pressure;BME280_temperature;BME280_humidity;BME280_pressure;Samples;Min_cycle;Max_cycle;Signal;HPM_P1;HPM_P2
2023/12/13 00:03:38;;;;;;;22.60;11.60;;;;;;;4.51;86.29;97718.71;226561;1269;25402;-73
2023/12/13 00:08:41;;;;;;;26.90;11.70;;;;;;;4.55;85.97;97718.00;226441;1274;24311;-74
2023/12/13 00:13:44;;;;;;;22.70;11.70;;;;;;;4.59;85.98;97716.54;226565;1274;22538;-75
2023/12/13 00:18:47;;;;;;;40.70;22.10;;;;;;;4.60;85.88;97712.42;226495;1274;22540;-74
2023/12/13 00:23:50;;;;;;;41.00;22.10;;;;;;;4.55;85.67;97687.52;226567;1267;22559;-73
2023/12/13 00:28:52;;;;;;;36.30;20.80;;;;;;;4.42;85.30;97682.97;226676;1272;22536;-73
2023/12/13 00:33:54;;;;;;;39.20;19.60;;;;;;;4.34;85.54;97674.09;226625;1270;22591;-73
2023/12/13 00:38:57;;;;;;;34.10;18.80;;;;;;;4.31;85.53;97660.48;226531;1274;25958;-73
2023/12/13 00:43:59;;;;;;;35.40;19.60;;;;;;;4.32;85.49;97660.05;226521;1270;22566;-73
2023/12/13 00:49:01;;;;;;;37.60;19.40;;;;;;;4.26;84.91;97666.27;226556;1267;22619;-75
2023/12/13 00:54:04;;;;;;;39.90;21.50;;;;;;;4.17;85.11;97667.17;226555;1274;22538;-74
2023/12/13 00:59:05;;;;;;;40.80;22.00;;;;;;;4.09;85.11;97666.52;226484;1272;22548;-73
2023/12/13 01:04:07;;;;;;;41.10;22.50;;;;;;;4.00;85.09;97676.08;226545;1273;22546;-74
2023/12/13 01:09:10;;;;;;;43.00;23.50;;;;;;;3.95;85.32;97664.16;226445;1269;22536;-74
2023/12/13 01:14:12;;;;;;;42.60;23.80;;;;;;;3.96;85.60;97649.44;226563;1270;22581;-74
2023/12/13 01:19:14;;;;;;;46.00;25.90;;;;;;;4.00;86.01;97643.04;226343;1273;23005;-74
2023/12/13 01:24:17;;;;;;;43.60;24.70;;;;;;;4.01;85.76;97640.52;226621;1270;22552;-74
2023/12/13 01:29:19;;;;;;;40.90;24.50;;;;;;;3.99;85.54;97630.24;226489;1272;24493;-73
2023/12/13 01:34:21;;;;;;;45.30;24.10;;;;;;;3.96;85.80;97630.19;226567;1267;22542;-75
2023/12/13 01:39:23;;;;;;;44.50;24.90;;;;;;;3.93;85.69;97617.38;226425;1269;25268;-74
2023/12/13 01:44:25;;;;;;;45.10;24.60;;;;;;;3.89;85.73;97611.65;226512;1272;22551;-75
2023/12/13 01:49:27;;;;;;;50.50;27.30;;;;;;;3.88;85.76;97603.91;226470;1256;22548;-74
2023/12/13 01:54:30;;;;;;;46.20;27.00;;;;;;;3.85;85.91;97596.48;226522;1272;22544;-74
2023/12/13 01:59:33;;;;;;;50.30;28.10;;;;;;;3.82;86.20;97583.66;226587;1271;22560;-74
2023/12/13 02:04:36;;;;;;;49.10;27.70;;;;;;;3.80;85.97;97586.23;226543;1266;22629;-74
2023/12/13 02:09:38;;;;;;;49.60;28.90;;;;;;;3.78;86.06;97588.38;226560;1272;25468;-75
2023/12/13 02:14:40;;;;;;;54.90;33.10;;;;;;;3.72;86.04;97572.98;226555;1269;22921;-74
2023/12/13 02:19:42;;;;;;;59.10;32.60;;;;;;;3.69;86.14;97558.79;226516;1274;22564;-74
2023/12/13 02:24:48;;;;;;;54.30;34.60;;;;;;;3.66;86.21;97554.64;226455;1269;22539;-74
2023/12/13 02:29:50;;;;;;;60.00;35.00;;;;;;;3.63;86.35;97552.84;226713;1272;22572;-75
2023/12/13 02:34:54;;;;;;;56.20;33.70;;;;;;;3.62;86.33;97558.05;226522;1272;22674;-75
2023/12/13 02:39:58;;;;;;;54.40;33.80;;;;;;;3.62;86.55;97554.52;226483;1270;22547;-75
2023/12/13 02:45:00;;;;;;;52.20;31.70;;;;;;;3.63;86.59;97542.59;226493;1266;22524;-75
2023/12/13 02:50:02;;;;;;;53.80;32.10;;;;;;;3.61;86.30;97542.58;226545;1269;24231;-75
2023/12/13 02:55:06;;;;;;;44.60;29.20;;;;;;;3.61;86.64;97530.10;226507;1251;22602;-76
2023/12/13 03:00:09;;;;;;;50.90;30.70;;;;;;;3.65;86.77;97528.54;226700;1272;22544;-75
2023/12/13 03:05:11;;;;;;;42.20;28.20;;;;;;;3.72;86.74;97529.84;226679;1272;22533;-75
2023/12/13 03:10:13;;;;;;;44.50;27.00;;;;;;;3.74;86.75;97519.55;226578;1270;22544;-76
2023/12/13 03:15:15;;;;;;;39.30;26.90;;;;;;;3.75;86.81;97521.80;226569;1272;22559;-75
2023/12/13 03:20:17;;;;;;;38.80;24.70;;;;;;;3.76;86.77;97522.64;226510;1266;22709;-75
2023/12/13 03:25:19;;;;;;;39.30;25.60;;;;;;;3.81;87.00;97524.92;226578;1267;22544;-75
2023/12/13 03:30:21;;;;;;;36.20;23.60;;;;;;;3.83;86.60;97515.54;226570;1272;22570;-75
2023/12/13 03:35:24;;;;;;;36.00;21.70;;;;;;;3.85;86.96;97503.92;226526;1272;22549;-76
2023/12/13 03:40:26;;;;;;;31.60;20.20;;;;;;;3.87;86.83;97500.20;226432;1272;25525;-75
2023/12/13 03:45:28;;;;;;;35.00;20.60;;;;;;;3.86;86.87;97499.59;226498;1269;22637;-77
2023/12/13 03:50:30;;;;;;;28.90;19.50;;;;;;;3.91;86.80;97499.66;226514;1270;22544;-75
2023/12/13 03:55:32;;;;;;;36.50;22.40;;;;;;;3.94;86.63;97495.77;226600;1272;22546;-73
2023/12/13 04:00:34;;;;;;;39.90;24.30;;;;;;;4.00;86.58;97494.61;226581;1270;22532;-73
2023/12/13 04:05:36;;;;;;;37.00;22.90;;;;;;;4.07;86.75;97477.75;226518;1272;22577;-73
2023/12/13 04:10:38;;;;;;;32.80;20.50;;;;;;;4.07;86.41;97475.55;226529;1272;22818;-74
2023/12/13 04:15:40;;;;;;;30.60;19.90;;;;;;;4.03;86.26;97470.37;226493;1272;22548;-73
2023/12/13 04:20:42;;;;;;;32.50;21.00;;;;;;;4.01;86.70;97463.27;226543;1273;22541;-73
2023/12/13 04:25:44;;;;;;;30.90;20.50;;;;;;;4.03;86.71;97460.43;226556;1272;22535;-75
2023/12/13 04:30:46;;;;;;;33.60;22.10;;;;;;;4.04;86.76;97453.98;226516;1272;22545;-75
2023/12/13 04:35:48;;;;;;;30.60;20.70;;;;;;;4.03;86.66;97442.47;226544;1263;22551;-73
2023/12/13 04:40:50;;;;;;;31.70;21.50;;;;;;;4.02;86.56;97442.89;226465;1273;22554;-74
2023/12/13 04:45:52;;;;;;;32.20;22.00;;;;;;;4.06;86.66;97430.98;226476;1274;23027;-73
2023/12/13 04:50:54;;;;;;;37.40;24.10;;;;;;;4.07;86.72;97429.95;226497;1269;22596;-74
2023/12/13 04:55:56;;;;;;;34.70;22.40;;;;;;;4.06;86.37;97424.88;226403;1269;23268;-74
2023/12/13 05:00:58;;;;;;;30.30;21.00;;;;;;;4.08;86.39;97432.10;226448;1272;22583;-74
2023/12/13 05:06:00;;;;;;;30.20;22.00;;;;;;;4.10;86.54;97436.75;226606;1272;22541;-74
2023/12/13 05:11:03;;;;;;;29.30;21.10;;;;;;;4.10;86.23;97439.37;226537;1272;23213;-73
2023/12/13 05:16:06;;;;;;;30.00;21.40;;;;;;;4.12;86.22;97429.88;226510;1269;24391;-75
2023/12/13 05:21:08;;;;;;;32.40;22.80;;;;;;;4.12;86.28;97428.11;226537;1272;22544;-74
2023/12/13 05:26:10;;;;;;;36.80;26.30;;;;;;;4.14;86.44;97417.35;226297;1273;22587;-74
2023/12/13 05:31:23;;;;;;;34.80;25.70;;;;;;;4.16;86.17;97426.22;226322;1275;22533;-74
2023/12/13 05:36:25;;;;;;;36.80;23.70;;;;;;;4.19;86.29;97426.77;226604;1269;22544;-74
2023/12/13 05:41:27;;;;;;;30.60;20.80;;;;;;;4.24;86.29;97423.23;226477;1269;22547;-74
2023/12/13 05:46:33;;;;;;;31.80;21.50;;;;;;;4.32;86.80;97418.89;226569;1262;22554;-74
2023/12/13 05:51:36;;;;;;;25.90;19.60;;;;;;;4.35;86.41;97406.14;226537;1272;24911;-73
2023/12/13 05:56:38;;;;;;;27.00;19.40;;;;;;;4.29;85.96;97408.37;226536;1269;22664;-74
2023/12/13 06:01:40;;;;;;;22.80;17.00;;;;;;;4.23;85.92;97391.45;226492;1269;22532;-74
2023/12/13 06:06:45;;;;;;;29.90;19.50;;;;;;;4.16;86.21;97398.22;226487;1272;22693;-74
2023/12/13 06:11:48;;;;;;;27.50;19.10;;;;;;;4.06;86.33;97405.45;226538;1269;22593;-74
2023/12/13 06:16:50;;;;;;;27.20;19.80;;;;;;;4.01;86.28;97392.72;226470;1272;24874;-74
2023/12/13 06:21:52;;;;;;;30.40;22.00;;;;;;;3.98;86.36;97390.03;226463;1272;22551;-75
2023/12/13 06:26:57;;;;;;;30.70;21.10;;;;;;;3.93;86.69;97392.69;226455;1272;22542;-75
2023/12/13 06:31:59;;;;;;;31.60;21.90;;;;;;;3.94;86.84;97388.89;226519;1272;22551;-75
2023/12/13 06:37:01;;;;;;;31.70;21.80;;;;;;;3.94;86.64;97375.49;226509;1273;22569;-75
2023/12/13 06:42:10;;;;;;;30.50;20.80;;;;;;;3.89;86.93;97377.04;226373;1275;22560;-75
2023/12/13 06:47:12;;;;;;;27.80;19.70;;;;;;;3.90;87.12;97380.00;226216;1260;22565;-75
2023/12/13 06:52:14;;;;;;;28.90;21.50;;;;;;;3.90;86.94;97378.80;226117;1259;22524;-75
2023/12/13 06:57:16;;;;;;;29.60;21.20;;;;;;;3.92;86.86;97375.55;226191;1256;22552;-75
2023/12/13 07:02:19;;;;;;;31.40;22.50;;;;;;;3.94;87.16;97378.59;226013;1255;22503;-80
2023/12/13 07:07:23;;;;;;;33.00;22.90;;;;;;;3.95;87.19;97371.34;225850;1258;22569;-76
2023/12/13 07:12:28;;;;;;;30.90;23.40;;;;;;;3.96;86.90;97363.85;225850;1256;22555;-75
2023/12/13 07:17:31;;;;;;;31.10;23.20;;;;;;;3.98;86.83;97379.21;225912;1262;22547;-77
2023/12/13 07:22:33;;;;;;;34.30;23.80;;;;;;;4.00;86.80;97388.16;225886;1253;22565;-76
2023/12/13 07:27:37;;;;;;;37.60;26.60;;;;;;;4.03;87.18;97392.81;226041;1260;22579;-76
2023/12/13 07:32:41;;;;;;;38.30;26.70;;;;;;;4.07;86.88;97387.80;226048;1256;22558;-79
2023/12/13 07:37:44;;;;;;;41.90;28.40;;;;;;;4.08;86.89;97383.52;225949;1256;22587;-74
2023/12/13 07:42:46;;;;;;;40.20;28.70;;;;;;;4.10;87.01;97387.23;225753;1256;22543;-76
2023/12/13 07:47:49;;;;;;;43.50;28.60;;;;;;;4.15;87.00;97385.27;225838;1251;22540;-76
2023/12/13 07:53:10;;;;;;;40.70;28.00;;;;;;;4.23;87.28;97373.71;225907;1259;22648;-76
2023/12/13 07:58:12;;;;;;;42.00;28.90;;;;;;;4.27;86.83;97365.89;225805;1256;22548;-77
2023/12/13 08:03:14;;;;;;;42.10;29.60;;;;;;;4.32;87.01;97354.70;225816;1254;23070;-76
2023/12/13 08:08:16;;;;;;;39.70;28.60;;;;;;;4.35;87.21;97341.59;225916;1251;22518;-77
2023/12/13 08:13:18;;;;;;;39.40;28.10;;;;;;;4.36;86.87;97332.95;225697;1259;24945;-77
2023/12/13 08:18:20;;;;;;;42.70;28.30;;;;;;;4.41;87.17;97333.21;225704;1256;25348;-79
2023/12/13 08:23:22;;;;;;;41.40;29.20;;;;;;;4.45;86.87;97318.78;225597;1251;23458;-77
2023/12/13 08:28:24;;;;;;;40.90;29.60;;;;;;;4.48;87.39;97320.77;225585;1260;22563;-78
2023/12/13 08:33:26;;;;;;;42.70;31.60;;;;;;;4.52;87.22;97316.15;225810;1267;22542;-77
2023/12/13 08:38:28;;;;;;;43.40;32.60;;;;;;;4.56;86.97;97323.98;225892;1251;23022;-78
2023/12/13 08:43:30;;;;;;;50.20;33.60;;;;;;;4.63;87.27;97344.34;225891;1272;22543;-78
2023/12/13 08:48:33;;;;;;;44.70;29.50;;;;;;;4.70;87.38;97345.15;226028;1263;23056;-78
2023/12/13 08:53:35;;;;;;;42.70;29.10;;;;;;;4.79;87.07;97350.46;225997;1272;24305;-78
2023/12/13 08:58:37;;;;;;;45.40;30.40;;;;;;;4.90;86.87;97344.93;226136;1266;25317;-77
2023/12/13 09:03:40;;;;;;;44.30;30.30;;;;;;;5.07;87.52;97343.23;225890;1259;22533;-78
2023/12/13 09:08:44;;;;;;;47.90;30.80;;;;;;;5.24;87.17;97346.39;226082;1256;22543;-79
2023/12/13 09:13:46;;;;;;;44.40;28.90;;;;;;;5.37;87.04;97347.66;226169;1259;22540;-77
2023/12/13 09:18:49;;;;;;;40.70;29.30;;;;;;;5.50;87.01;97347.08;226094;1262;22709;-77
2023/12/13 09:23:52;;;;;;;36.20;26.90;;;;;;;5.62;86.93;97348.04;226024;1258;22556;-78
2023/12/13 09:28:55;;;;;;;41.00;31.10;;;;;;;5.68;86.52;97350.25;226178;1256;22551;-77
2023/12/13 09:33:58;;;;;;;41.30;29.90;;;;;;;5.76;86.61;97338.61;226180;1256;22580;-77
2023/12/13 09:39:01;;;;;;;46.10;31.50;;;;;;;5.88;86.62;97330.83;226193;1266;22534;-76
2023/12/13 09:44:03;;;;;;;52.80;35.70;;;;;;;6.02;86.86;97321.72;226005;1266;22965;-76
2023/12/13 09:49:05;;;;;;;56.90;39.00;;;;;;;6.11;86.27;97311.17;226060;1262;22544;-77
2023/12/13 09:54:30;;;;;;;56.30;38.60;;;;;;;6.17;86.26;97306.89;225987;1251;22547;-78
2023/12/13 09:59:32;;;;;;;52.90;35.50;;;;;;;6.22;86.45;97322.45;225933;1267;22543;-78
2023/12/13 10:04:35;;;;;;;49.50;32.30;;;;;;;6.28;86.26;97319.27;225828;1256;22637;-76
2023/12/13 10:09:37;;;;;;;50.60;32.60;;;;;;;6.37;86.10;97314.23;226047;1256;24313;-76
2023/12/13 10:14:39;;;;;;;49.80;30.80;;;;;;;6.45;86.10;97302.98;226297;1272;22555;-75
2023/12/13 10:19:41;;;;;;;43.80;29.60;;;;;;;6.55;85.98;97295.01;225941;1254;22992;-76
2023/12/13 10:24:45;;;;;;;44.40;30.40;;;;;;;6.67;85.94;97288.57;225955;1269;22660;-75
2023/12/13 10:29:47;;;;;;;37.90;25.90;;;;;;;6.76;85.57;97288.10;225721;1256;22540;-75
2023/12/13 10:34:49;;;;;;;45.00;29.80;;;;;;;6.78;85.11;97278.45;225807;1263;25368;-77
2023/12/13 10:39:55;;;;;;;43.50;28.10;;;;;;;6.85;85.48;97280.35;225543;1266;22524;-78
2023/12/13 10:45:00;;;;;;;39.70;25.80;;;;;;;6.93;85.18;97274.87;225815;1253;22570;-77
2023/12/13 10:50:02;;;;;;;32.30;22.10;;;;;;;6.99;85.04;97270.75;225940;1274;22563;-76
2023/12/13 10:55:08;;;;;;;35.80;23.70;;;;;;;7.03;85.16;97258.78;226041;1259;22659;-75
2023/12/13 11:00:13;;;;;;;33.40;22.20;;;;;;;6.97;84.56;97257.14;225882;1269;22593;-77
2023/12/13 11:05:17;;;;;;;35.80;22.30;;;;;;;6.90;84.37;97249.86;225974;1259;22576;-75
2023/12/13 11:10:19;;;;;;;31.40;21.80;;;;;;;6.87;84.63;97244.29;226281;1275;22559;-76
2023/12/13 11:15:21;;;;;;;30.30;21.20;;;;;;;6.84;84.71;97238.05;226312;1255;22540;-76
2023/12/13 11:20:23;;;;;;;31.90;21.70;;;;;;;6.83;84.49;97240.73;226140;1266;22547;-77
2023/12/13 11:25:37;;;;;;;34.10;22.90;;;;;;;6.79;84.24;97237.03;225709;1267;164782;-76
2023/12/13 11:30:41;;;;;;;38.40;26.80;;;;;;;6.79;84.81;97232.10;225660;1270;25267;-76
2023/12/13 11:35:46;;;;;;;38.80;26.10;;;;;;;6.84;85.10;97225.79;225761;1256;24648;-76
2023/12/13 11:40:48;;;;;;;33.40;23.90;;;;;;;6.95;84.86;97209.36;225628;1275;24384;-76
2023/12/13 11:45:50;;;;;;;32.00;24.40;;;;;;;7.08;84.75;97207.56;225897;1263;22459;-78
2023/12/13 11:50:53;;;;;;;31.70;22.90;;;;;;;7.22;84.92;97208.34;226056;1267;22553;-77
2023/12/13 11:55:56;;;;;;;31.00;23.00;;;;;;;7.31;84.73;97215.63;226247;1269;22578;-78
2023/12/13 12:00:59;;;;;;;35.00;26.20;;;;;;;7.28;84.14;97219.77;226030;1266;22542;-79
2023/12/13 12:06:01;;;;;;;31.20;22.40;;;;;;;7.17;83.72;97216.39;225971;1259;23059;-76
2023/12/13 12:11:03;;;;;;;34.00;24.00;;;;;;;6.99;83.66;97212.79;225807;1266;22536;-74
2023/12/13 12:16:05;;;;;;;37.10;23.90;;;;;;;6.90;83.97;97213.80;225956;1259;22537;-75
2023/12/13 12:21:09;;;;;;;35.80;24.70;;;;;;;6.81;84.00;97211.02;225992;1272;22983;-75
2023/12/13 12:26:12;;;;;;;38.80;28.90;;;;;;;6.70;84.25;97215.17;225882;1263;22554;-74
2023/12/13 12:31:14;;;;;;;42.90;29.30;;;;;;;6.65;84.60;97210.38;225981;1256;22537;-74
2023/12/13 12:36:18;;;;;;;38.80;28.90;;;;;;;6.62;84.43;97215.30;226100;1269;22545;-77
2023/12/13 12:41:22;;;;;;;43.40;31.80;;;;;;;6.61;84.63;97218.41;226145;1263;22579;-77
2023/12/13 12:46:26;;;;;;;49.00;33.40;;;;;;;6.63;84.81;97202.91;226131;1250;22539;-76
2023/12/13 12:51:28;;;;;;;48.90;32.20;;;;;;;6.69;84.62;97200.52;226189;1256;23279;-75
2023/12/13 12:56:30;;;;;;;45.40;31.00;;;;;;;6.81;84.93;97201.73;226149;1263;22553;-76
2023/12/13 13:01:33;;;;;;;43.40;30.90;;;;;;;6.92;85.16;97206.90;226071;1259;24245;-78
2023/12/13 13:06:38;;;;;;;40.30;28.30;;;;;;;7.04;85.22;97191.33;225832;1262;24349;-78
2023/12/13 13:11:41;;;;;;;37.40;26.50;;;;;;;7.10;84.59;97187.41;226021;1269;22548;-75
2023/12/13 13:16:43;;;;;;;42.70;28.20;;;;;;;7.10;84.58;97191.41;226402;1272;22549;-75
2023/12/13 13:21:45;;;;;;;37.20;26.00;;;;;;;7.07;84.74;97181.02;225879;1275;22536;-75
2023/12/13 13:26:47;;;;;;;42.20;28.00;;;;;;;6.97;84.51;97174.17;225912;1272;22561;-74
2023/12/13 13:31:50;;;;;;;43.20;28.60;;;;;;;6.80;84.70;97173.70;225962;1268;22619;-75
2023/12/13 13:36:52;;;;;;;46.20;30.50;;;;;;;6.64;84.55;97184.54;226031;1263;22553;-75
2023/12/13 13:41:54;;;;;;;48.60;32.90;;;;;;;6.61;84.92;97195.23;225928;1269;22551;-74
2023/12/13 13:46:56;;;;;;;43.80;31.70;;;;;;;6.61;84.93;97199.19;225846;1261;22581;-76
2023/12/13 13:51:58;;;;;;;45.50;32.40;;;;;;;6.61;85.02;97205.90;225916;1272;22552;-76
2023/12/13 13:57:04;;;;;;;43.90;30.50;;;;;;;6.59;84.79;97209.52;225969;1256;22536;-74
2023/12/13 14:02:06;;;;;;;43.50;28.50;;;;;;;6.56;84.86;97205.92;226031;1253;22542;-77
2023/12/13 14:07:08;;;;;;;49.00;36.10;;;;;;;6.52;84.60;97203.84;226242;1270;22558;-77
2023/12/13 14:12:10;;;;;;;35.10;26.80;;;;;;;6.50;84.89;97192.41;225996;1256;22643;-77
2023/12/13 14:17:13;;;;;;;39.90;26.60;;;;;;;6.48;85.32;97191.08;226065;1266;25287;-76
2023/12/13 14:22:19;;;;;;;42.60;28.80;;;;;;;6.47;85.25;97202.45;226044;1267;22604;-75
2023/12/13 14:27:21;;;;;;;42.00;30.00;;;;;;;6.44;85.02;97207.86;226035;1256;22548;-78
2023/12/13 14:32:23;;;;;;;42.40;29.10;;;;;;;6.43;85.30;97212.56;225808;1266;22559;-77
2023/12/13 14:37:26;;;;;;;46.60;32.00;;;;;;;6.42;85.50;97217.09;225826;1272;22551;-79
2023/12/13 14:42:29;;;;;;;47.20;32.70;;;;;;;6.38;85.53;97211.35;225721;1274;22585;-79
2023/12/13 14:47:32;;;;;;;47.70;33.50;;;;;;;6.39;85.78;97219.70;225832;1275;22971;-74
2023/12/13 14:52:34;;;;;;;54.30;34.90;;;;;;;6.37;85.63;97223.64;225871;1257;23053;-75
2023/12/13 14:57:37;;;;;;;58.40;39.70;;;;;;;6.35;85.57;97234.90;225812;1254;22619;-76
2023/12/13 15:02:43;;;;;;;55.40;36.30;;;;;;;6.33;85.51;97233.83;225981;1268;23056;-74
2023/12/13 15:07:52;;;;;;;50.80;32.70;;;;;;;6.28;85.61;97245.96;226006;1275;22580;-74
2023/12/13 15:12:54;;;;;;;64.90;39.50;;;;;;;6.26;86.13;97252.13;226045;1266;22538;-74
2023/12/13 15:17:57;;;;;;;58.10;37.30;;;;;;;6.27;85.64;97256.96;225934;1273;22523;-75
2023/12/13 15:22:59;;;;;;;52.40;33.40;;;;;;;6.27;86.27;97254.59;226115;1267;22544;-74
2023/12/13 15:28:05;;;;;;;45.00;30.20;;;;;;;6.30;86.15;97257.23;226016;1266;22552;-74
2023/12/13 15:33:07;;;;;;;43.90;30.20;;;;;;;6.31;86.34;97257.10;226377;1275;23438;-74
2023/12/13 15:38:10;;;;;;;40.70;28.10;;;;;;;6.32;86.53;97264.86;226679;1273;22567;-74
2023/12/13 15:43:13;;;;;;;53.20;31.80;;;;;;;6.30;86.54;97265.61;226269;1274;22549;-74
2023/12/13 15:48:15;;;;;;;46.80;32.20;;;;;;;6.29;86.08;97262.95;226540;1273;24266;-74
2023/12/13 15:53:18;;;;;;;45.30;31.10;;;;;;;6.27;86.62;97266.98;226419;1267;22710;-74
2023/12/13 15:58:21;;;;;;;47.80;34.10;;;;;;;6.23;86.47;97264.16;226554;1274;22559;-75
2023/12/13 16:03:23;;;;;;;54.40;35.60;;;;;;;6.21;86.77;97266.66;226456;1273;24793;-74
2023/12/13 16:08:25;;;;;;;65.00;43.20;;;;;;;6.17;86.59;97258.64;226599;1275;22537;-75
2023/12/13 16:13:27;;;;;;;63.00;41.50;;;;;;;6.11;86.55;97267.29;226615;1273;22551;-73
2023/12/13 16:18:30;;;;;;;62.40;42.60;;;;;;;6.06;86.61;97268.83;226486;1273;22538;-75
2023/12/13 16:23:33;;;;;;;58.10;39.80;;;;;;;6.03;87.16;97272.15;226568;1275;22545;-74
2023/12/13 16:28:36;;;;;;;63.90;39.20;;;;;;;5.98;87.18;97270.75;226523;1273;22747;-75
2023/12/13 16:33:38;;;;;;;58.20;38.50;;;;;;;5.95;87.11;97272.84;226420;1274;22583;-73
2023/12/13 16:38:42;;;;;;;59.80;38.80;;;;;;;5.91;87.13;97278.41;226541;1270;22629;-76
2023/12/13 16:43:46;;;;;;;59.50;38.40;;;;;;;5.88;87.17;97278.19;226565;1273;22550;-75
2023/12/13 16:48:48;;;;;;;60.20;39.10;;;;;;;5.85;87.20;97272.85;226451;1270;24271;-77
2023/12/13 16:53:50;;;;;;;53.40;37.00;;;;;;;5.81;87.38;97270.85;226595;1271;25424;-74
2023/12/13 16:58:53;;;;;;;49.10;33.20;;;;;;;5.81;87.32;97274.89;226346;1275;22574;-74
2023/12/13 17:03:58;;;;;;;50.30;34.80;;;;;;;5.80;87.48;97271.95;226579;1273;22588;-75
2023/12/13 17:09:03;;;;;;;58.00;37.40;;;;;;;5.77;87.45;97273.20;226420;1270;24656;-73
2023/12/13 17:14:06;;;;;;;70.60;42.80;;;;;;;5.74;87.43;97276.11;226621;1272;24221;-73
2023/12/13 17:19:09;;;;;;;67.00;44.10;;;;;;;5.69;87.93;97271.01;226423;1273;22543;-74
2023/12/13 17:24:12;;;;;;;78.20;54.90;;;;;;;5.62;87.94;97269.94;226586;1272;24227;-74
2023/12/13 17:29:14;;;;;;;92.60;59.60;;;;;;;5.56;87.74;97270.09;226424;1275;22544;-73
2023/12/13 17:34:31;;;;;;;83.80;54.30;;;;;;;5.51;88.07;97263.85;226430;1274;22539;-74
2023/12/13 17:39:33;;;;;;;85.50;56.10;;;;;;;5.47;87.90;97263.36;226374;1273;22545;-73
2023/12/13 17:44:36;;;;;;;77.90;53.70;;;;;;;5.40;87.87;97266.10;226504;1274;22572;-73
2023/12/13 17:49:38;;;;;;;91.20;58.00;;;;;;;5.32;88.10;97265.92;226560;1275;22536;-73
2023/12/13 17:54:40;;;;;;;90.50;59.60;;;;;;;5.25;88.02;97258.30;226500;1272;23318;-75
2023/12/13 17:59:42;;;;;;;86.30;58.00;;;;;;;5.17;88.34;97248.92;226560;1275;22560;-75
2023/12/13 18:04:44;;;;;;;87.50;60.10;;;;;;;5.11;88.10;97244.27;226373;1272;22575;-73
2023/12/13 18:09:47;;;;;;;82.20;56.30;;;;;;;5.10;88.47;97236.54;226573;1264;22560;-74
2023/12/13 18:14:50;;;;;;;89.50;58.60;;;;;;;5.10;88.29;97241.25;226322;1271;23099;-74
2023/12/13 18:19:52;;;;;;;88.90;58.40;;;;;;;5.09;88.36;97243.05;226375;1270;22565;-76
2023/12/13 18:24:54;;;;;;;79.70;54.00;;;;;;;5.05;88.24;97247.22;226488;1269;22705;-75
2023/12/13 18:29:56;;;;;;;84.60;56.00;;;;;;;5.03;88.43;97236.39;226581;1275;22550;-74
2023/12/13 18:34:58;;;;;;;80.70;52.40;;;;;;;5.03;88.91;97230.50;226393;1271;22552;-72
2023/12/13 18:40:00;;;;;;;79.60;51.50;;;;;;;4.99;88.74;97233.48;226609;1263;22547;-72
2023/12/13 18:45:03;;;;;;;75.70;48.60;;;;;;;4.93;88.76;97236.02;226571;1251;24247;-72
2023/12/13 18:50:06;;;;;;;80.50;50.00;;;;;;;4.92;88.92;97240.23;226628;1275;22962;-74
2023/12/13 18:55:11;;;;;;;77.40;49.60;;;;;;;4.94;89.23;97250.31;226538;1273;22600;-75
2023/12/13 19:00:14;;;;;;;82.50;49.80;;;;;;;4.96;89.31;97269.94;226404;1273;22546;-75
2023/12/13 19:05:17;;;;;;;83.50;50.60;;;;;;;4.94;88.99;97270.45;226424;1270;22622;-74
2023/12/13 19:10:21;;;;;;;78.20;50.00;;;;;;;4.90;89.17;97272.46;226608;1272;22567;-74
2023/12/13 19:15:23;;;;;;;84.70;52.00;;;;;;;4.84;89.15;97276.69;226415;1270;24638;-75
2023/12/13 19:20:26;;;;;;;81.00;51.90;;;;;;;4.80;89.14;97281.88;226429;1275;22559;-75
2023/12/13 19:25:28;;;;;;;84.00;51.60;;;;;;;4.77;89.26;97290.30;226367;1275;22562;-74
2023/12/13 19:30:31;;;;;;;85.50;52.70;;;;;;;4.75;89.21;97299.91;226432;1273;22540;-73
2023/12/13 19:35:33;;;;;;;84.50;51.70;;;;;;;4.74;89.23;97305.83;226478;1273;23457;-74
2023/12/13 19:40:36;;;;;;;76.90;49.10;;;;;;;4.74;89.15;97302.58;226430;1273;24235;-74
2023/12/13 19:45:41;;;;;;;88.30;51.80;;;;;;;4.73;89.44;97299.27;226642;1271;22549;-72
2023/12/13 19:50:43;;;;;;;81.60;49.10;;;;;;;4.74;89.66;97303.58;226581;1274;22551;-75
2023/12/13 19:55:47;;;;;;;84.90;49.00;;;;;;;4.76;89.35;97305.17;226605;1272;22544;-75
2023/12/13 20:00:52;;;;;;;85.00;50.60;;;;;;;4.76;89.51;97305.35;226725;1272;22543;-73
2023/12/13 20:05:55;;;;;;;86.00;50.10;;;;;;;4.71;89.56;97311.27;226362;1272;22560;-76
2023/12/13 20:10:58;;;;;;;87.40;51.20;;;;;;;4.67;89.45;97315.93;226805;1267;22695;-73
2023/12/13 20:16:02;;;;;;;78.80;47.80;;;;;;;4.67;89.82;97324.08;226235;1274;22531;-74
2023/12/13 20:21:04;;;;;;;78.70;46.60;;;;;;;4.67;89.60;97334.05;226614;1272;22556;-73
2023/12/13 20:26:08;;;;;;;72.10;45.50;;;;;;;4.67;89.99;97337.94;226403;1274;22551;-73
2023/12/13 20:31:16;;;;;;;73.00;44.20;;;;;;;4.68;89.92;97346.13;226455;1275;22546;-76
2023/12/13 20:36:19;;;;;;;65.80;40.90;;;;;;;4.68;89.89;97349.59;226417;1273;25373;-75
2023/12/13 20:41:21;;;;;;;69.80;43.20;;;;;;;4.69;90.18;97356.45;226366;1275;22546;-74
2023/12/13 20:46:23;;;;;;;67.70;41.60;;;;;;;4.72;89.87;97360.63;226410;1273;22539;-74
2023/12/13 20:51:26;;;;;;;60.60;38.70;;;;;;;4.73;89.82;97365.75;226318;1274;22545;-72
2023/12/13 20:56:28;;;;;;;70.80;42.30;;;;;;;4.76;90.22;97375.99;226646;1269;22568;-76
2023/12/13 21:01:30;;;;;;;66.60;40.10;;;;;;;4.80;90.31;97378.08;226576;1271;25346;-74
2023/12/13 21:06:32;;;;;;;69.50;43.60;;;;;;;4.81;90.14;97383.73;226408;1273;26155;-75
2023/12/13 21:11:35;;;;;;;67.10;42.50;;;;;;;4.79;89.84;97388.38;226411;1272;22544;-74
2023/12/13 21:16:37;;;;;;;75.80;45.70;;;;;;;4.77;89.89;97392.02;226397;1274;22554;-74
2023/12/13 21:21:39;;;;;;;76.90;45.20;;;;;;;4.72;89.97;97396.80;226480;1269;22545;-74
2023/12/13 21:26:41;;;;;;;74.90;43.90;;;;;;;4.69;90.21;97399.78;226379;1274;22561;-74
2023/12/13 21:31:43;;;;;;;75.50;44.60;;;;;;;4.70;90.21;97405.55;226464;1275;22550;-74
2023/12/13 21:36:46;;;;;;;79.60;47.20;;;;;;;4.72;90.22;97411.06;226574;1272;22542;-75
2023/12/13 21:41:48;;;;;;;77.50;44.50;;;;;;;4.72;90.18;97413.80;226426;1273;22544;-75
2023/12/13 21:46:50;;;;;;;67.30;40.10;;;;;;;4.72;90.40;97417.83;226389;1273;22531;-74
2023/12/13 21:51:52;;;;;;;58.70;36.00;;;;;;;4.73;90.12;97417.88;226547;1272;22527;-74
2023/12/13 21:56:54;;;;;;;54.80;34.00;;;;;;;4.72;90.29;97421.52;226590;1269;22556;-74
2023/12/13 22:01:56;;;;;;;55.80;33.80;;;;;;;4.72;90.34;97426.03;226367;1275;22544;-74
2023/12/13 22:07:01;;;;;;;51.30;33.50;;;;;;;4.72;90.07;97427.30;226586;1274;22646;-74
2023/12/13 22:12:04;;;;;;;54.10;34.90;;;;;;;4.70;90.17;97424.59;226582;1272;22544;-74
2023/12/13 22:17:08;;;;;;;52.40;32.30;;;;;;;4.68;90.08;97429.67;226461;1272;22544;-73
2023/12/13 22:22:10;;;;;;;53.20;33.60;;;;;;;4.63;90.01;97425.83;226431;1269;22593;-72
2023/12/13 22:27:12;;;;;;;61.30;37.90;;;;;;;4.59;89.91;97419.23;226460;1273;22564;-73
2023/12/13 22:32:14;;;;;;;63.10;39.80;;;;;;;4.58;90.16;97421.20;226462;1273;22564;-73
2023/12/13 22:37:16;;;;;;;56.10;36.20;;;;;;;4.62;90.64;97421.96;226535;1272;24257;-73
2023/12/13 22:42:19;;;;;;;63.20;37.80;;;;;;;4.66;90.88;97426.03;226582;1272;23178;-73
2023/12/13 22:47:21;;;;;;;68.50;38.70;;;;;;;4.67;90.20;97425.92;226630;1275;22546;-73
2023/12/13 22:52:23;;;;;;;70.40;39.70;;;;;;;4.69;90.34;97427.96;226553;1268;22586;-74
2023/12/13 22:57:26;;;;;;;74.30;41.40;;;;;;;4.74;90.63;97434.22;226632;1275;22622;-72
2023/12/13 23:02:28;;;;;;;81.70;42.30;;;;;;;4.75;90.48;97436.31;226572;1272;22567;-73
2023/12/13 23:07:30;;;;;;;95.00;45.90;;;;;;;4.75;90.65;97438.58;226381;1273;25340;-73
2023/12/13 23:12:33;;;;;;;95.40;48.30;;;;;;;4.77;90.58;97442.50;226311;1275;24361;-72